sensor_id;sensor_type;location;lat;lon;timestamp;P1;durP1;ratioP1;P2;durP2;ratioP2
20727;SDS011;10525;50.154;8.198;2022-12-29T00:02:09;2.70;;;2.50;;
20727;SDS011;10525;50.154;8.198;2022-12-29T00:04:36;6.93;;;3.13;;
20727;SDS011;10525;50.154;8.198;2022-12-29T00:07:04;4.32;;;2.47;;
20727;SDS011;10525;50.154;8.198;2022-12-29T00:09:31;4.25;;;2.72;;
20727;SDS011;10525;50.154;8.198;2022-12-29T00:11:59;3.30;;;3.00;;
20727;SDS011;10525;50.154;8.198;2022-12-29T00:14:25;5.13;;;3.03;;
20727;SDS011;10525;50.154;8.198;2022-12-29T00:17:10;6.82;;;3.08;;
20727;SDS011;10525;50.154;8.198;2022-12-29T00:19:37;3.45;;;2.90;;
20727;SDS011;10525;50.154;8.198;2022-12-29T00:22:22;8.05;;;2.95;;
20727;SDS011;10525;50.154;8.198;2022-12-29T00:25:07;3.85;;;3.35;;
20727;SDS011;10525;50.154;8.198;2022-12-29T00:27:52;9.00;;;3.00;;
20727;SDS011;10525;50.154;8.198;2022-12-29T00:30:37;6.43;;;2.85;;
20727;SDS011;10525;50.154;8.198;2022-12-29T00:33:21;2.67;;;2.47;;
20727;SDS011;10525;50.154;8.198;2022-12-29T00:36:11;4.10;;;2.97;;
20727;SDS011;10525;50.154;8.198;2022-12-29T00:38:43;3.95;;;2.63;;
20727;SDS011;10525;50.154;8.198;2022-12-29T00:41:30;4.05;;;2.67;;
20727;SDS011;10525;50.154;8.198;2022-12-29T00:44:14;2.92;;;2.67;;
20727;SDS011;10525;50.154;8.198;2022-12-29T00:46:41;3.20;;;2.90;;
20727;SDS011;10525;50.154;8.198;2022-12-29T00:49:10;3.10;;;2.90;;
20727;SDS011;10525;50.154;8.198;2022-12-29T00:51:55;3.25;;;3.05;;
20727;SDS011;10525;50.154;8.198;2022-12-29T00:54:25;4.00;;;2.83;;
20727;SDS011;10525;50.154;8.198;2022-12-29T00:56:52;3.08;;;2.88;;
20727;SDS011;10525;50.154;8.198;2022-12-29T00:59:19;2.55;;;2.45;;
20727;SDS011;10525;50.154;8.198;2022-12-29T01:01:46;2.85;;;2.65;;
20727;SDS011;10525;50.154;8.198;2022-12-29T01:04:13;2.92;;;2.72;;
20727;SDS011;10525;50.154;8.198;2022-12-29T01:06:40;3.40;;;3.05;;
20727;SDS011;10525;50.154;8.198;2022-12-29T01:09:07;4.28;;;3.05;;
20727;SDS011;10525;50.154;8.198;2022-12-29T01:11:54;3.05;;;2.72;;
20727;SDS011;10525;50.154;8.198;2022-12-29T01:14:21;9.75;;;3.47;;
20727;SDS011;10525;50.154;8.198;2022-12-29T01:16:48;2.80;;;2.63;;
20727;SDS011;10525;50.154;8.198;2022-12-29T01:19:16;3.05;;;2.65;;
20727;SDS011;10525;50.154;8.198;2022-12-29T01:21:43;3.58;;;3.28;;
20727;SDS011;10525;50.154;8.198;2022-12-29T01:24:10;3.25;;;3.05;;
20727;SDS011;10525;50.154;8.198;2022-12-29T01:26:36;3.67;;;2.50;;
20727;SDS011;10525;50.154;8.198;2022-12-29T01:29:04;3.08;;;2.88;;
20727;SDS011;10525;50.154;8.198;2022-12-29T01:31:31;4.30;;;3.08;;
20727;SDS011;10525;50.154;8.198;2022-12-29T01:33:58;4.68;;;3.20;;
20727;SDS011;10525;50.154;8.198;2022-12-29T01:36:24;5.15;;;3.47;;
20727;SDS011;10525;50.154;8.198;2022-12-29T01:38:51;3.10;;;2.90;;
20727;SDS011;10525;50.154;8.198;2022-12-29T01:41:18;3.58;;;3.10;;
20727;SDS011;10525;50.154;8.198;2022-12-29T01:43:46;3.63;;;3.30;;
20727;SDS011;10525;50.154;8.198;2022-12-29T01:46:22;4.97;;;3.22;;
20727;SDS011;10525;50.154;8.198;2022-12-29T01:48:53;4.07;;;3.22;;
20727;SDS011;10525;50.154;8.198;2022-12-29T01:51:23;3.53;;;3.28;;
20727;SDS011;10525;50.154;8.198;2022-12-29T01:53:51;5.90;;;3.20;;
20727;SDS011;10525;50.154;8.198;2022-12-29T01:56:20;3.00;;;2.80;;
20727;SDS011;10525;50.154;8.198;2022-12-29T01:58:48;4.78;;;3.35;;
20727;SDS011;10525;50.154;8.198;2022-12-29T02:01:19;5.22;;;2.92;;
20727;SDS011;10525;50.154;8.198;2022-12-29T02:03:48;3.03;;;2.92;;
20727;SDS011;10525;50.154;8.198;2022-12-29T02:06:17;3.17;;;2.97;;
20727;SDS011;10525;50.154;8.198;2022-12-29T02:08:47;3.03;;;2.83;;
20727;SDS011;10525;50.154;8.198;2022-12-29T02:11:16;3.15;;;2.95;;
20727;SDS011;10525;50.154;8.198;2022-12-29T02:13:44;2.80;;;2.70;;
20727;SDS011;10525;50.154;8.198;2022-12-29T02:16:14;3.17;;;2.97;;
20727;SDS011;10525;50.154;8.198;2022-12-29T02:18:51;2.90;;;2.70;;
20727;SDS011;10525;50.154;8.198;2022-12-29T02:21:36;5.57;;;2.60;;
20727;SDS011;10525;50.154;8.198;2022-12-29T02:24:23;3.25;;;2.42;;
20727;SDS011;10525;50.154;8.198;2022-12-29T02:30:04;3.30;;;3.15;;
20727;SDS011;10525;50.154;8.198;2022-12-29T02:32:40;3.28;;;3.03;;
20727;SDS011;10525;50.154;8.198;2022-12-29T02:35:14;3.08;;;2.92;;
20727;SDS011;10525;50.154;8.198;2022-12-29T02:37:54;3.45;;;3.15;;
20727;SDS011;10525;50.154;8.198;2022-12-29T02:40:26;3.15;;;2.95;;
20727;SDS011;10525;50.154;8.198;2022-12-29T02:42:59;5.25;;;3.33;;
20727;SDS011;10525;50.154;8.198;2022-12-29T02:45:31;3.25;;;3.08;;
20727;SDS011;10525;50.154;8.198;2022-12-29T02:48:06;3.95;;;3.65;;
20727;SDS011;10525;50.154;8.198;2022-12-29T02:50:40;3.17;;;3.08;;
20727;SDS011;10525;50.154;8.198;2022-12-29T02:53:15;3.72;;;2.83;;
20727;SDS011;10525;50.154;8.198;2022-12-29T02:56:05;4.88;;;3.30;;
20727;SDS011;10525;50.154;8.198;2022-12-29T02:58:31;5.00;;;2.33;;
20727;SDS011;10525;50.154;8.198;2022-12-29T03:01:02;3.22;;;2.80;;
20727;SDS011;10525;50.154;8.198;2022-12-29T03:03:46;2.55;;;2.55;;
20727;SDS011;10525;50.154;8.198;2022-12-29T03:06:27;4.65;;;2.97;;
20727;SDS011;10525;50.154;8.198;2022-12-29T03:09:02;3.33;;;3.03;;
20727;SDS011;10525;50.154;8.198;2022-12-29T03:11:41;2.72;;;2.53;;
20727;SDS011;10525;50.154;8.198;2022-12-29T03:14:37;2.88;;;2.65;;
20727;SDS011;10525;50.154;8.198;2022-12-29T03:17:34;2.92;;;2.72;;
20727;SDS011;10525;50.154;8.198;2022-12-29T03:20:08;2.78;;;2.33;;
20727;SDS011;10525;50.154;8.198;2022-12-29T03:22:40;2.40;;;2.30;;
20727;SDS011;10525;50.154;8.198;2022-12-29T03:25:10;2.30;;;2.20;;
20727;SDS011;10525;50.154;8.198;2022-12-29T03:27:42;1.90;;;1.90;;
20727;SDS011;10525;50.154;8.198;2022-12-29T03:30:13;3.97;;;2.83;;
20727;SDS011;10525;50.154;8.198;2022-12-29T03:32:41;2.70;;;2.50;;
20727;SDS011;10525;50.154;8.198;2022-12-29T03:35:13;2.10;;;2.05;;
20727;SDS011;10525;50.154;8.198;2022-12-29T03:37:43;2.63;;;2.42;;
20727;SDS011;10525;50.154;8.198;2022-12-29T03:40:15;2.15;;;2.05;;
20727;SDS011;10525;50.154;8.198;2022-12-29T03:42:43;2.33;;;2.13;;
20727;SDS011;10525;50.154;8.198;2022-12-29T03:45:10;2.10;;;2.08;;
20727;SDS011;10525;50.154;8.198;2022-12-29T03:47:37;2.28;;;2.17;;
20727;SDS011;10525;50.154;8.198;2022-12-29T03:50:04;2.80;;;2.22;;
20727;SDS011;10525;50.154;8.198;2022-12-29T03:52:34;2.63;;;2.40;;
20727;SDS011;10525;50.154;8.198;2022-12-29T03:55:01;2.78;;;2.58;;
20727;SDS011;10525;50.154;8.198;2022-12-29T03:57:28;3.58;;;2.70;;
20727;SDS011;10525;50.154;8.198;2022-12-29T03:59:54;3.22;;;2.92;;
20727;SDS011;10525;50.154;8.198;2022-12-29T04:02:21;4.40;;;3.13;;
20727;SDS011;10525;50.154;8.198;2022-12-29T04:04:48;3.25;;;3.03;;
20727;SDS011;10525;50.154;8.198;2022-12-29T04:07:15;3.60;;;3.35;;
20727;SDS011;10525;50.154;8.198;2022-12-29T04:09:43;8.55;;;3.20;;
20727;SDS011;10525;50.154;8.198;2022-12-29T04:12:10;3.22;;;3.03;;
20727;SDS011;10525;50.154;8.198;2022-12-29T04:14:37;2.78;;;2.65;;
20727;SDS011;10525;50.154;8.198;2022-12-29T04:17:03;4.50;;;2.75;;
20727;SDS011;10525;50.154;8.198;2022-12-29T04:19:30;3.35;;;2.97;;
20727;SDS011;10525;50.154;8.198;2022-12-29T04:21:57;3.78;;;2.95;;
20727;SDS011;10525;50.154;8.198;2022-12-29T04:24:23;2.88;;;2.67;;
20727;SDS011;10525;50.154;8.198;2022-12-29T04:26:51;3.20;;;2.80;;
20727;SDS011;10525;50.154;8.198;2022-12-29T04:29:18;3.10;;;2.90;;
20727;SDS011;10525;50.154;8.198;2022-12-29T04:31:45;2.92;;;2.83;;
20727;SDS011;10525;50.154;8.198;2022-12-29T04:34:11;4.20;;;3.08;;
20727;SDS011;10525;50.154;8.198;2022-12-29T04:36:40;7.47;;;3.50;;
20727;SDS011;10525;50.154;8.198;2022-12-29T04:39:06;2.72;;;2.60;;
20727;SDS011;10525;50.154;8.198;2022-12-29T04:41:33;4.15;;;2.83;;
20727;SDS011;10525;50.154;8.198;2022-12-29T04:44:01;3.05;;;2.78;;
20727;SDS011;10525;50.154;8.198;2022-12-29T04:46:28;2.92;;;2.72;;
20727;SDS011;10525;50.154;8.198;2022-12-29T04:48:55;3.92;;;3.05;;
20727;SDS011;10525;50.154;8.198;2022-12-29T04:51:21;3.40;;;3.10;;
20727;SDS011;10525;50.154;8.198;2022-12-29T04:53:48;2.95;;;2.75;;
20727;SDS011;10525;50.154;8.198;2022-12-29T04:56:15;5.30;;;3.17;;
20727;SDS011;10525;50.154;8.198;2022-12-29T04:58:41;6.88;;;3.08;;
20727;SDS011;10525;50.154;8.198;2022-12-29T05:01:09;4.78;;;2.75;;
20727;SDS011;10525;50.154;8.198;2022-12-29T05:03:36;4.03;;;2.60;;
20727;SDS011;10525;50.154;8.198;2022-12-29T05:06:02;6.40;;;2.60;;
20727;SDS011;10525;50.154;8.198;2022-12-29T05:08:29;5.18;;;3.10;;
20727;SDS011;10525;50.154;8.198;2022-12-29T05:10:56;7.95;;;3.13;;
20727;SDS011;10525;50.154;8.198;2022-12-29T05:13:23;8.02;;;2.80;;
20727;SDS011;10525;50.154;8.198;2022-12-29T05:15:50;3.45;;;2.60;;
20727;SDS011;10525;50.154;8.198;2022-12-29T05:18:19;2.67;;;2.47;;
20727;SDS011;10525;50.154;8.198;2022-12-29T05:20:46;4.10;;;3.15;;
20727;SDS011;10525;50.154;8.198;2022-12-29T05:23:13;2.75;;;2.65;;
20727;SDS011;10525;50.154;8.198;2022-12-29T05:25:40;2.33;;;2.22;;
20727;SDS011;10525;50.154;8.198;2022-12-29T05:28:07;3.38;;;2.65;;
20727;SDS011;10525;50.154;8.198;2022-12-29T05:30:33;2.83;;;2.20;;
20727;SDS011;10525;50.154;8.198;2022-12-29T05:33:00;3.22;;;2.40;;
20727;SDS011;10525;50.154;8.198;2022-12-29T05:35:28;2.30;;;2.20;;
20727;SDS011;10525;50.154;8.198;2022-12-29T05:37:55;2.42;;;2.33;;
20727;SDS011;10525;50.154;8.198;2022-12-29T05:40:21;2.45;;;2.35;;
20727;SDS011;10525;50.154;8.198;2022-12-29T05:42:48;3.17;;;2.92;;
20727;SDS011;10525;50.154;8.198;2022-12-29T05:45:15;6.90;;;2.92;;
20727;SDS011;10525;50.154;8.198;2022-12-29T05:47:41;3.10;;;2.90;;
20727;SDS011;10525;50.154;8.198;2022-12-29T05:50:08;3.55;;;3.15;;
20727;SDS011;10525;50.154;8.198;2022-12-29T05:52:36;2.90;;;2.70;;
20727;SDS011;10525;50.154;8.198;2022-12-29T05:55:03;3.53;;;3.13;;
20727;SDS011;10525;50.154;8.198;2022-12-29T05:57:30;3.78;;;3.00;;
20727;SDS011;10525;50.154;8.198;2022-12-29T05:59:57;3.08;;;2.63;;
20727;SDS011;10525;50.154;8.198;2022-12-29T06:02:23;2.92;;;2.75;;
20727;SDS011;10525;50.154;8.198;2022-12-29T06:04:50;7.60;;;2.80;;
20727;SDS011;10525;50.154;8.198;2022-12-29T06:07:17;3.30;;;3.03;;
20727;SDS011;10525;50.154;8.198;2022-12-29T06:09:45;4.32;;;2.67;;
20727;SDS011;10525;50.154;8.198;2022-12-29T06:12:11;3.08;;;2.85;;
20727;SDS011;10525;50.154;8.198;2022-12-29T06:14:38;5.60;;;2.63;;
20727;SDS011;10525;50.154;8.198;2022-12-29T06:17:04;3.22;;;2.97;;
20727;SDS011;10525;50.154;8.198;2022-12-29T06:19:31;3.55;;;3.25;;
20727;SDS011;10525;50.154;8.198;2022-12-29T06:21:58;3.25;;;3.05;;
20727;SDS011;10525;50.154;8.198;2022-12-29T06:24:25;2.40;;;2.17;;
20727;SDS011;10525;50.154;8.198;2022-12-29T06:26:53;2.80;;;2.38;;
20727;SDS011;10525;50.154;8.198;2022-12-29T06:29:19;2.70;;;2.60;;
20727;SDS011;10525;50.154;8.198;2022-12-29T06:31:47;2.58;;;2.38;;
20727;SDS011;10525;50.154;8.198;2022-12-29T06:34:14;2.30;;;2.20;;
20727;SDS011;10525;50.154;8.198;2022-12-29T06:36:41;2.65;;;2.47;;
20727;SDS011;10525;50.154;8.198;2022-12-29T06:39:08;2.50;;;2.33;;
20727;SDS011;10525;50.154;8.198;2022-12-29T06:41:36;2.65;;;2.00;;
20727;SDS011;10525;50.154;8.198;2022-12-29T06:44:04;2.38;;;2.25;;
20727;SDS011;10525;50.154;8.198;2022-12-29T06:46:30;3.13;;;2.20;;
20727;SDS011;10525;50.154;8.198;2022-12-29T06:48:57;3.15;;;2.30;;
20727;SDS011;10525;50.154;8.198;2022-12-29T06:51:24;2.63;;;2.45;;
20727;SDS011;10525;50.154;8.198;2022-12-29T06:53:50;2.40;;;2.30;;
20727;SDS011;10525;50.154;8.198;2022-12-29T06:56:17;2.63;;;2.42;;
20727;SDS011;10525;50.154;8.198;2022-12-29T06:58:44;2.58;;;2.45;;
20727;SDS011;10525;50.154;8.198;2022-12-29T07:01:12;6.10;;;2.65;;
20727;SDS011;10525;50.154;8.198;2022-12-29T07:03:40;3.15;;;2.85;;
20727;SDS011;10525;50.154;8.198;2022-12-29T07:06:07;5.22;;;2.70;;
20727;SDS011;10525;50.154;8.198;2022-12-29T07:08:34;2.78;;;2.65;;
20727;SDS011;10525;50.154;8.198;2022-12-29T07:11:00;5.93;;;2.53;;
20727;SDS011;10525;50.154;8.198;2022-12-29T07:13:27;6.45;;;3.20;;
20727;SDS011;10525;50.154;8.198;2022-12-29T07:15:54;2.95;;;2.75;;
20727;SDS011;10525;50.154;8.198;2022-12-29T07:18:22;3.53;;;3.33;;
20727;SDS011;10525;50.154;8.198;2022-12-29T07:20:48;3.33;;;3.03;;
20727;SDS011;10525;50.154;8.198;2022-12-29T07:23:15;2.85;;;2.65;;
20727;SDS011;10525;50.154;8.198;2022-12-29T07:25:42;3.15;;;2.90;;
20727;SDS011;10525;50.154;8.198;2022-12-29T07:28:08;3.70;;;2.50;;
20727;SDS011;10525;50.154;8.198;2022-12-29T07:30:36;4.10;;;3.53;;
20727;SDS011;10525;50.154;8.198;2022-12-29T07:33:03;4.35;;;2.55;;
20727;SDS011;10525;50.154;8.198;2022-12-29T07:35:32;2.90;;;2.60;;
20727;SDS011;10525;50.154;8.198;2022-12-29T07:37:59;3.42;;;2.63;;
20727;SDS011;10525;50.154;8.198;2022-12-29T07:40:26;4.80;;;3.10;;
20727;SDS011;10525;50.154;8.198;2022-12-29T07:42:52;2.88;;;2.67;;
20727;SDS011;10525;50.154;8.198;2022-12-29T07:45:19;2.30;;;2.22;;
20727;SDS011;10525;50.154;8.198;2022-12-29T07:47:47;3.70;;;2.78;;
20727;SDS011;10525;50.154;8.198;2022-12-29T07:50:14;3.08;;;2.78;;
20727;SDS011;10525;50.154;8.198;2022-12-29T07:52:42;3.17;;;2.10;;
20727;SDS011;10525;50.154;8.198;2022-12-29T07:55:09;2.05;;;1.98;;
20727;SDS011;10525;50.154;8.198;2022-12-29T07:57:36;2.67;;;2.55;;
20727;SDS011;10525;50.154;8.198;2022-12-29T08:00:03;7.07;;;2.63;;
20727;SDS011;10525;50.154;8.198;2022-12-29T08:02:30;9.30;;;2.47;;
20727;SDS011;10525;50.154;8.198;2022-12-29T08:04:57;6.68;;;2.88;;
20727;SDS011;10525;50.154;8.198;2022-12-29T08:07:24;3.50;;;2.67;;
20727;SDS011;10525;50.154;8.198;2022-12-29T08:09:52;5.85;;;2.88;;
20727;SDS011;10525;50.154;8.198;2022-12-29T08:12:18;4.93;;;2.65;;
20727;SDS011;10525;50.154;8.198;2022-12-29T08:14:45;5.03;;;2.33;;
20727;SDS011;10525;50.154;8.198;2022-12-29T08:17:12;2.72;;;2.53;;
20727;SDS011;10525;50.154;8.198;2022-12-29T08:19:38;2.50;;;2.40;;
20727;SDS011;10525;50.154;8.198;2022-12-29T08:22:07;3.05;;;2.78;;
20727;SDS011;10525;50.154;8.198;2022-12-29T08:24:34;2.72;;;2.53;;
20727;SDS011;10525;50.154;8.198;2022-12-29T08:27:02;2.58;;;2.38;;
20727;SDS011;10525;50.154;8.198;2022-12-29T08:29:28;3.33;;;2.70;;
20727;SDS011;10525;50.154;8.198;2022-12-29T08:31:55;2.30;;;2.20;;
20727;SDS011;10525;50.154;8.198;2022-12-29T08:34:22;5.35;;;2.80;;
20727;SDS011;10525;50.154;8.198;2022-12-29T08:36:48;2.97;;;2.80;;
20727;SDS011;10525;50.154;8.198;2022-12-29T08:39:15;2.63;;;2.45;;
20727;SDS011;10525;50.154;8.198;2022-12-29T08:41:42;3.00;;;2.80;;
20727;SDS011;10525;50.154;8.198;2022-12-29T08:44:10;2.42;;;2.30;;
20727;SDS011;10525;50.154;8.198;2022-12-29T08:46:36;5.63;;;2.60;;
20727;SDS011;10525;50.154;8.198;2022-12-29T08:49:03;2.15;;;2.00;;
20727;SDS011;10525;50.154;8.198;2022-12-29T08:51:30;2.50;;;2.20;;
20727;SDS011;10525;50.154;8.198;2022-12-29T08:53:56;4.70;;;2.42;;
20727;SDS011;10525;50.154;8.198;2022-12-29T08:56:23;2.88;;;2.35;;
20727;SDS011;10525;50.154;8.198;2022-12-29T08:58:50;3.53;;;2.42;;
20727;SDS011;10525;50.154;8.198;2022-12-29T09:01:18;2.47;;;2.28;;
20727;SDS011;10525;50.154;8.198;2022-12-29T09:03:45;4.03;;;2.67;;
20727;SDS011;10525;50.154;8.198;2022-12-29T09:06:12;8.20;;;2.30;;
20727;SDS011;10525;50.154;8.198;2022-12-29T09:08:41;2.10;;;2.00;;
20727;SDS011;10525;50.154;8.198;2022-12-29T09:11:08;2.20;;;2.10;;
20727;SDS011;10525;50.154;8.198;2022-12-29T09:13:36;8.00;;;2.40;;
20727;SDS011;10525;50.154;8.198;2022-12-29T09:16:03;1.80;;;1.80;;
20727;SDS011;10525;50.154;8.198;2022-12-29T09:18:31;2.80;;;2.10;;
20727;SDS011;10525;50.154;8.198;2022-12-29T09:20:58;1.95;;;1.92;;
20727;SDS011;10525;50.154;8.198;2022-12-29T09:23:26;2.28;;;2.17;;
20727;SDS011;10525;50.154;8.198;2022-12-29T09:25:53;3.08;;;2.00;;
20727;SDS011;10525;50.154;8.198;2022-12-29T09:28:20;1.75;;;1.75;;
20727;SDS011;10525;50.154;8.198;2022-12-29T09:30:47;2.13;;;2.03;;
20727;SDS011;10525;50.154;8.198;2022-12-29T09:33:15;2.65;;;2.20;;
20727;SDS011;10525;50.154;8.198;2022-12-29T09:35:43;4.32;;;1.73;;
20727;SDS011;10525;50.154;8.198;2022-12-29T09:38:10;6.57;;;2.28;;
20727;SDS011;10525;50.154;8.198;2022-12-29T09:40:37;1.42;;;1.40;;
20727;SDS011;10525;50.154;8.198;2022-12-29T09:43:10;2.28;;;1.60;;
20727;SDS011;10525;50.154;8.198;2022-12-29T09:45:47;1.65;;;1.50;;
20727;SDS011;10525;50.154;8.198;2022-12-29T09:48:22;1.00;;;1.00;;
20727;SDS011;10525;50.154;8.198;2022-12-29T09:50:55;3.33;;;1.35;;
20727;SDS011;10525;50.154;8.198;2022-12-29T09:53:25;1.33;;;1.30;;
20727;SDS011;10525;50.154;8.198;2022-12-29T09:55:55;1.00;;;1.00;;
20727;SDS011;10525;50.154;8.198;2022-12-29T09:58:26;1.25;;;1.20;;
20727;SDS011;10525;50.154;8.198;2022-12-29T10:01:00;1.33;;;1.15;;
20727;SDS011;10525;50.154;8.198;2022-12-29T10:03:32;0.90;;;0.90;;
20727;SDS011;10525;50.154;8.198;2022-12-29T10:06:10;0.80;;;0.80;;
20727;SDS011;10525;50.154;8.198;2022-12-29T10:08:42;1.00;;;1.00;;
20727;SDS011;10525;50.154;8.198;2022-12-29T10:11:17;2.97;;;1.30;;
20727;SDS011;10525;50.154;8.198;2022-12-29T10:13:57;2.75;;;1.38;;
20727;SDS011;10525;50.154;8.198;2022-12-29T10:16:35;1.10;;;1.10;;
20727;SDS011;10525;50.154;8.198;2022-12-29T10:19:13;1.45;;;1.00;;
20727;SDS011;10525;50.154;8.198;2022-12-29T10:22:12;1.30;;;1.30;;
20727;SDS011;10525;50.154;8.198;2022-12-29T10:24:49;1.20;;;1.10;;
20727;SDS011;10525;50.154;8.198;2022-12-29T10:27:19;2.17;;;1.38;;
20727;SDS011;10525;50.154;8.198;2022-12-29T10:29:48;1.13;;;1.13;;
20727;SDS011;10525;50.154;8.198;2022-12-29T10:32:19;1.30;;;1.20;;
20727;SDS011;10525;50.154;8.198;2022-12-29T10:34:51;5.90;;;0.95;;
20727;SDS011;10525;50.154;8.198;2022-12-29T10:37:24;0.90;;;0.90;;
20727;SDS011;10525;50.154;8.198;2022-12-29T10:39:57;0.90;;;0.90;;
20727;SDS011;10525;50.154;8.198;2022-12-29T10:42:26;1.55;;;0.63;;
20727;SDS011;10525;50.154;8.198;2022-12-29T10:44:54;0.68;;;0.68;;
20727;SDS011;10525;50.154;8.198;2022-12-29T10:47:23;2.75;;;0.85;;
20727;SDS011;10525;50.154;8.198;2022-12-29T10:49:54;3.10;;;0.85;;
20727;SDS011;10525;50.154;8.198;2022-12-29T10:52:24;0.82;;;0.70;;
20727;SDS011;10525;50.154;8.198;2022-12-29T10:54:54;0.73;;;0.73;;
20727;SDS011;10525;50.154;8.198;2022-12-29T10:57:25;0.70;;;0.70;;
20727;SDS011;10525;50.154;8.198;2022-12-29T10:59:54;3.13;;;1.00;;
20727;SDS011;10525;50.154;8.198;2022-12-29T11:02:25;2.28;;;0.60;;
20727;SDS011;10525;50.154;8.198;2022-12-29T11:05:19;1.02;;;0.50;;
20727;SDS011;10525;50.154;8.198;2022-12-29T11:07:55;0.65;;;0.65;;
20727;SDS011;10525;50.154;8.198;2022-12-29T11:10:29;2.22;;;0.90;;
20727;SDS011;10525;50.154;8.198;2022-12-29T11:13:01;0.98;;;0.90;;
20727;SDS011;10525;50.154;8.198;2022-12-29T11:15:38;1.60;;;1.23;;
20727;SDS011;10525;50.154;8.198;2022-12-29T11:18:07;3.40;;;0.85;;
20727;SDS011;10525;50.154;8.198;2022-12-29T11:20:44;2.72;;;0.63;;
20727;SDS011;10525;50.154;8.198;2022-12-29T11:23:22;1.95;;;0.70;;
20727;SDS011;10525;50.154;8.198;2022-12-29T11:26:05;5.82;;;1.10;;
20727;SDS011;10525;50.154;8.198;2022-12-29T11:28:34;2.85;;;0.93;;
20727;SDS011;10525;50.154;8.198;2022-12-29T11:31:02;6.57;;;0.88;;
20727;SDS011;10525;50.154;8.198;2022-12-29T11:33:30;0.80;;;0.80;;
20727;SDS011;10525;50.154;8.198;2022-12-29T11:35:58;2.20;;;1.05;;
20727;SDS011;10525;50.154;8.198;2022-12-29T11:38:31;1.45;;;1.10;;
20727;SDS011;10525;50.154;8.198;2022-12-29T11:41:01;4.28;;;0.82;;
20727;SDS011;10525;50.154;8.198;2022-12-29T11:43:30;5.25;;;1.10;;
20727;SDS011;10525;50.154;8.198;2022-12-29T11:45:58;4.82;;;0.90;;
20727;SDS011;10525;50.154;8.198;2022-12-29T11:48:29;4.15;;;0.90;;
20727;SDS011;10525;50.154;8.198;2022-12-29T11:50:58;1.65;;;0.80;;
20727;SDS011;10525;50.154;8.198;2022-12-29T11:53:26;1.75;;;0.77;;
20727;SDS011;10525;50.154;8.198;2022-12-29T11:56:00;2.25;;;0.98;;
20727;SDS011;10525;50.154;8.198;2022-12-29T11:58:31;2.88;;;0.95;;
20727;SDS011;10525;50.154;8.198;2022-12-29T12:01:00;2.17;;;0.88;;
20727;SDS011;10525;50.154;8.198;2022-12-29T12:03:29;4.03;;;1.10;;
20727;SDS011;10525;50.154;8.198;2022-12-29T12:06:00;1.10;;;1.00;;
20727;SDS011;10525;50.154;8.198;2022-12-29T12:08:31;1.23;;;1.08;;
20727;SDS011;10525;50.154;8.198;2022-12-29T12:11:06;1.65;;;0.80;;
20727;SDS011;10525;50.154;8.198;2022-12-29T12:13:37;1.58;;;0.75;;
20727;SDS011;10525;50.154;8.198;2022-12-29T12:16:09;1.67;;;0.75;;
20727;SDS011;10525;50.154;8.198;2022-12-29T12:18:41;1.08;;;0.90;;
20727;SDS011;10525;50.154;8.198;2022-12-29T12:21:23;1.85;;;0.80;;
20727;SDS011;10525;50.154;8.198;2022-12-29T12:23:59;0.82;;;0.82;;
20727;SDS011;10525;50.154;8.198;2022-12-29T12:26:37;1.60;;;0.90;;
20727;SDS011;10525;50.154;8.198;2022-12-29T12:29:10;4.93;;;1.08;;
20727;SDS011;10525;50.154;8.198;2022-12-29T12:31:44;0.80;;;0.80;;
20727;SDS011;10525;50.154;8.198;2022-12-29T12:34:16;1.30;;;1.30;;
20727;SDS011;10525;50.154;8.198;2022-12-29T12:39:40;1.48;;;0.80;;
20727;SDS011;10525;50.154;8.198;2022-12-29T12:42:18;1.67;;;0.80;;
20727;SDS011;10525;50.154;8.198;2022-12-29T12:44:57;1.65;;;0.90;;
20727;SDS011;10525;50.154;8.198;2022-12-29T12:47:36;1.35;;;0.80;;
20727;SDS011;10525;50.154;8.198;2022-12-29T12:50:18;3.28;;;1.17;;
20727;SDS011;10525;50.154;8.198;2022-12-29T12:52:58;1.92;;;1.30;;
20727;SDS011;10525;50.154;8.198;2022-12-29T12:55:44;1.98;;;0.88;;
20727;SDS011;10525;50.154;8.198;2022-12-29T12:58:22;3.47;;;1.17;;
20727;SDS011;10525;50.154;8.198;2022-12-29T13:01:00;2.30;;;0.80;;
20727;SDS011;10525;50.154;8.198;2022-12-29T13:03:42;0.70;;;0.70;;
20727;SDS011;10525;50.154;8.198;2022-12-29T13:06:18;1.63;;;0.88;;
20727;SDS011;10525;50.154;8.198;2022-12-29T13:09:03;1.58;;;0.90;;
20727;SDS011;10525;50.154;8.198;2022-12-29T13:11:47;3.38;;;0.93;;
20727;SDS011;10525;50.154;8.198;2022-12-29T13:14:27;1.05;;;0.80;;
20727;SDS011;10525;50.154;8.198;2022-12-29T13:17:04;1.52;;;0.85;;
20727;SDS011;10525;50.154;8.198;2022-12-29T13:19:36;5.38;;;0.90;;
20727;SDS011;10525;50.154;8.198;2022-12-29T13:22:08;0.73;;;0.68;;
20727;SDS011;10525;50.154;8.198;2022-12-29T13:24:45;3.60;;;0.80;;
20727;SDS011;10525;50.154;8.198;2022-12-29T13:27:20;1.75;;;0.90;;
20727;SDS011;10525;50.154;8.198;2022-12-29T13:29:56;1.00;;;1.00;;
20727;SDS011;10525;50.154;8.198;2022-12-29T13:32:30;3.50;;;0.80;;
20727;SDS011;10525;50.154;8.198;2022-12-29T13:35:10;2.10;;;1.00;;
20727;SDS011;10525;50.154;8.198;2022-12-29T13:37:49;7.93;;;1.25;;
20727;SDS011;10525;50.154;8.198;2022-12-29T13:40:19;0.95;;;0.63;;
20727;SDS011;10525;50.154;8.198;2022-12-29T13:42:50;0.60;;;0.60;;
20727;SDS011;10525;50.154;8.198;2022-12-29T13:45:20;0.60;;;0.60;;
20727;SDS011;10525;50.154;8.198;2022-12-29T13:47:51;1.90;;;0.70;;
20727;SDS011;10525;50.154;8.198;2022-12-29T13:50:21;1.65;;;0.70;;
20727;SDS011;10525;50.154;8.198;2022-12-29T13:52:51;2.80;;;1.30;;
20727;SDS011;10525;50.154;8.198;2022-12-29T13:55:29;0.90;;;0.90;;
20727;SDS011;10525;50.154;8.198;2022-12-29T13:58:03;1.85;;;1.02;;
20727;SDS011;10525;50.154;8.198;2022-12-29T14:00:38;5.97;;;0.90;;
20727;SDS011;10525;50.154;8.198;2022-12-29T14:03:16;2.05;;;0.90;;
20727;SDS011;10525;50.154;8.198;2022-12-29T14:06:02;1.25;;;0.90;;
20727;SDS011;10525;50.154;8.198;2022-12-29T14:08:37;1.00;;;0.75;;
20727;SDS011;10525;50.154;8.198;2022-12-29T14:11:05;1.90;;;0.90;;
20727;SDS011;10525;50.154;8.198;2022-12-29T14:13:36;5.20;;;0.90;;
20727;SDS011;10525;50.154;8.198;2022-12-29T14:16:06;1.33;;;1.20;;
20727;SDS011;10525;50.154;8.198;2022-12-29T14:18:41;3.10;;;1.15;;
20727;SDS011;10525;50.154;8.198;2022-12-29T14:21:10;2.15;;;1.10;;
20727;SDS011;10525;50.154;8.198;2022-12-29T14:23:47;1.35;;;0.80;;
20727;SDS011;10525;50.154;8.198;2022-12-29T14:26:16;1.40;;;0.80;;
20727;SDS011;10525;50.154;8.198;2022-12-29T14:28:45;2.72;;;0.80;;
20727;SDS011;10525;50.154;8.198;2022-12-29T14:34:15;1.70;;;1.10;;
20727;SDS011;10525;50.154;8.198;2022-12-29T14:36:57;4.35;;;1.02;;
20727;SDS011;10525;50.154;8.198;2022-12-29T14:39:33;6.78;;;0.77;;
20727;SDS011;10525;50.154;8.198;2022-12-29T14:42:03;2.60;;;1.02;;
20727;SDS011;10525;50.154;8.198;2022-12-29T14:44:32;4.38;;;0.85;;
20727;SDS011;10525;50.154;8.198;2022-12-29T14:47:01;2.67;;;0.80;;
20727;SDS011;10525;50.154;8.198;2022-12-29T14:49:33;0.73;;;0.73;;
20727;SDS011;10525;50.154;8.198;2022-12-29T14:52:12;3.33;;;1.02;;
20727;SDS011;10525;50.154;8.198;2022-12-29T14:54:45;5.57;;;1.10;;
20727;SDS011;10525;50.154;8.198;2022-12-29T15:00:12;1.50;;;1.40;;
20727;SDS011;10525;50.154;8.198;2022-12-29T15:02:45;4.22;;;1.50;;
20727;SDS011;10525;50.154;8.198;2022-12-29T15:05:26;6.28;;;0.95;;
20727;SDS011;10525;50.154;8.198;2022-12-29T15:07:57;4.00;;;1.48;;
20727;SDS011;10525;50.154;8.198;2022-12-29T15:10:26;3.97;;;1.45;;
20727;SDS011;10525;50.154;8.198;2022-12-29T15:13:05;4.65;;;1.00;;
20727;SDS011;10525;50.154;8.198;2022-12-29T15:15:41;4.43;;;1.27;;
20727;SDS011;10525;50.154;8.198;2022-12-29T15:18:20;4.57;;;1.05;;
20727;SDS011;10525;50.154;8.198;2022-12-29T15:20:50;2.35;;;1.05;;
20727;SDS011;10525;50.154;8.198;2022-12-29T15:23:19;2.05;;;1.30;;